sensor_id;sensor_type;location;lat;lon;timestamp;temperature;humidity
3466;DHT22;1747;48.884;9.160;2023-12-07T00:01:50;3.90;99.90
3466;DHT22;1747;48.884;9.160;2023-12-07T00:04:17;3.90;99.90
3466;DHT22;1747;48.884;9.160;2023-12-07T00:06:44;4.00;99.90
3466;DHT22;1747;48.884;9.160;2023-12-07T00:09:11;4.10;99.90
3466;DHT22;1747;48.884;9.160;2023-12-07T00:11:38;4.10;99.90
3466;DHT22;1747;48.884;9.160;2023-12-07T00:14:06;4.10;99.90
3466;DHT22;1747;48.884;9.160;2023-12-07T00:16:33;4.00;99.90
3466;DHT22;1747;48.884;9.160;2023-12-07T00:18:59;4.00;99.90
3466;DHT22;1747;48.884;9.160;2023-12-07T00:21:26;4.10;99.90
3466;DHT22;1747;48.884;9.160;2023-12-07T00:23:53;4.10;99.90
3466;DHT22;1747;48.884;9.160;2023-12-07T00:26:20;4.10;99.90
3466;DHT22;1747;48.884;9.160;2023-12-07T00:28:46;4.10;99.90
3466;DHT22;1747;48.884;9.160;2023-12-07T00:31:15;4.10;99.90
3466;DHT22;1747;48.884;9.160;2023-12-07T00:33:40;4.00;99.90
3466;DHT22;1747;48.884;9.160;2023-12-07T00:36:08;4.00;99.90
3466;DHT22;1747;48.884;9.160;2023-12-07T00:38:35;4.00;99.90
3466;DHT22;1747;48.884;9.160;2023-12-07T00:41:02;4.00;99.90
3466;DHT22;1747;48.884;9.160;2023-12-07T00:43:29;4.00;99.90
3466;DHT22;1747;48.884;9.160;2023-12-07T00:45:56;3.90;99.90
3466;DHT22;1747;48.884;9.160;2023-12-07T00:48:24;4.00;99.90
3466;DHT22;1747;48.884;9.160;2023-12-07T00:50:51;3.90;99.90
3466;DHT22;1747;48.884;9.160;2023-12-07T00:53:18;4.00;99.90
3466;DHT22;1747;48.884;9.160;2023-12-07T00:55:45;4.00;99.90
3466;DHT22;1747;48.884;9.160;2023-12-07T00:58:11;4.10;99.90
3466;DHT22;1747;48.884;9.160;2023-12-07T01:00:39;4.10;99.90
3466;DHT22;1747;48.884;9.160;2023-12-07T01:03:06;4.10;99.90
3466;DHT22;1747;48.884;9.160;2023-12-07T01:05:34;4.10;99.90
3466;DHT22;1747;48.884;9.160;2023-12-07T01:08:01;4.10;99.90
3466;DHT22;1747;48.884;9.160;2023-12-07T01:10:27;4.10;99.90
3466;DHT22;1747;48.884;9.160;2023-12-07T01:12:54;4.00;99.90
3466;DHT22;1747;48.884;9.160;2023-12-07T01:15:21;4.00;99.90
3466;DHT22;1747;48.884;9.160;2023-12-07T01:17:48;4.10;99.90
3466;DHT22;1747;48.884;9.160;2023-12-07T01:20:15;4.10;99.90
3466;DHT22;1747;48.884;9.160;2023-12-07T01:22:44;4.10;99.90
3466;DHT22;1747;48.884;9.160;2023-12-07T01:25:11;4.20;99.90
3466;DHT22;1747;48.884;9.160;2023-12-07T01:27:39;4.30;99.90
3466;DHT22;1747;48.884;9.160;2023-12-07T01:30:07;4.30;99.90
3466;DHT22;1747;48.884;9.160;2023-12-07T01:32:34;4.30;99.90
3466;DHT22;1747;48.884;9.160;2023-12-07T01:35:00;4.30;99.90
3466;DHT22;1747;48.884;9.160;2023-12-07T01:37:28;4.30;99.90
3466;DHT22;1747;48.884;9.160;2023-12-07T01:39:56;4.40;99.90
3466;DHT22;1747;48.884;9.160;2023-12-07T01:42:23;4.40;99.90
3466;DHT22;1747;48.884;9.160;2023-12-07T01:44:49;4.30;99.90
3466;DHT22;1747;48.884;9.160;2023-12-07T01:47:16;4.30;99.90
3466;DHT22;1747;48.884;9.160;2023-12-07T01:49:43;4.30;99.90
3466;DHT22;1747;48.884;9.160;2023-12-07T01:52:10;4.30;99.90
3466;DHT22;1747;48.884;9.160;2023-12-07T01:54:38;4.30;99.90
3466;DHT22;1747;48.884;9.160;2023-12-07T01:57:06;4.30;99.90
3466;DHT22;1747;48.884;9.160;2023-12-07T01:59:34;4.30;99.90
3466;DHT22;1747;48.884;9.160;2023-12-07T02:02:00;4.30;99.90
3466;DHT22;1747;48.884;9.160;2023-12-07T02:04:27;4.30;99.90
3466;DHT22;1747;48.884;9.160;2023-12-07T02:06:56;4.30;99.90
3466;DHT22;1747;48.884;9.160;2023-12-07T02:09:23;4.30;99.90
3466;DHT22;1747;48.884;9.160;2023-12-07T02:11:50;4.30;99.90
3466;DHT22;1747;48.884;9.160;2023-12-07T02:14:18;4.30;99.90
3466;DHT22;1747;48.884;9.160;2023-12-07T02:16:50;4.30;99.90
3466;DHT22;1747;48.884;9.160;2023-12-07T02:19:47;4.30;99.90
3466;DHT22;1747;48.884;9.160;2023-12-07T02:22:17;4.30;99.90
3466;DHT22;1747;48.884;9.160;2023-12-07T02:24:54;4.20;99.90
3466;DHT22;1747;48.884;9.160;2023-12-07T02:27:35;4.10;99.90
3466;DHT22;1747;48.884;9.160;2023-12-07T02:30:02;4.10;99.90
3466;DHT22;1747;48.884;9.160;2023-12-07T02:32:29;4.10;99.90
3466;DHT22;1747;48.884;9.160;2023-12-07T02:34:56;4.00;99.90
3466;DHT22;1747;48.884;9.160;2023-12-07T02:37:26;3.90;99.90
3466;DHT22;1747;48.884;9.160;2023-12-07T02:39:55;3.90;99.90
3466;DHT22;1747;48.884;9.160;2023-12-07T02:42:24;3.90;99.90
3466;DHT22;1747;48.884;9.160;2023-12-07T02:44:54;3.80;99.90
3466;DHT22;1747;48.884;9.160;2023-12-07T02:47:21;3.80;99.90
3466;DHT22;1747;48.884;9.160;2023-12-07T02:49:48;3.80;99.90
3466;DHT22;1747;48.884;9.160;2023-12-07T02:52:15;3.80;99.90
3466;DHT22;1747;48.884;9.160;2023-12-07T02:54:42;3.80;99.90
3466;DHT22;1747;48.884;9.160;2023-12-07T02:57:09;3.70;99.90
3466;DHT22;1747;48.884;9.160;2023-12-07T02:59:36;3.60;99.90
3466;DHT22;1747;48.884;9.160;2023-12-07T03:02:04;3.50;99.90
3466;DHT22;1747;48.884;9.160;2023-12-07T03:04:31;3.40;99.90
3466;DHT22;1747;48.884;9.160;2023-12-07T03:06:58;3.30;99.90
3466;DHT22;1747;48.884;9.160;2023-12-07T03:09:25;3.30;99.90
3466;DHT22;1747;48.884;9.160;2023-12-07T03:11:51;3.30;99.90
3466;DHT22;1747;48.884;9.160;2023-12-07T03:14:18;3.30;99.90
3466;DHT22;1747;48.884;9.160;2023-12-07T03:16:45;3.20;99.90
3466;DHT22;1747;48.884;9.160;2023-12-07T03:19:13;3.20;99.90
3466;DHT22;1747;48.884;9.160;2023-12-07T03:21:41;3.10;99.90
3466;DHT22;1747;48.884;9.160;2023-12-07T03:24:09;3.10;99.90
3466;DHT22;1747;48.884;9.160;2023-12-07T03:26:36;3.10;99.90
3466;DHT22;1747;48.884;9.160;2023-12-07T03:29:03;3.10;99.90
3466;DHT22;1747;48.884;9.160;2023-12-07T03:31:30;3.10;99.90
3466;DHT22;1747;48.884;9.160;2023-12-07T03:33:57;3.00;99.90
3466;DHT22;1747;48.884;9.160;2023-12-07T03:36:26;3.00;99.90
3466;DHT22;1747;48.884;9.160;2023-12-07T03:38:53;3.00;99.90
3466;DHT22;1747;48.884;9.160;2023-12-07T03:41:19;3.00;99.90
3466;DHT22;1747;48.884;9.160;2023-12-07T03:43:46;2.90;99.90
3466;DHT22;1747;48.884;9.160;2023-12-07T03:46:13;2.90;99.90
3466;DHT22;1747;48.884;9.160;2023-12-07T03:48:40;2.90;99.90
3466;DHT22;1747;48.884;9.160;2023-12-07T03:51:06;2.80;99.90
3466;DHT22;1747;48.884;9.160;2023-12-07T03:53:34;2.80;99.90
3466;DHT22;1747;48.884;9.160;2023-12-07T03:56:01;2.80;99.90
3466;DHT22;1747;48.884;9.160;2023-12-07T03:58:29;2.80;99.90
3466;DHT22;1747;48.884;9.160;2023-12-07T04:00:56;2.80;99.90
3466;DHT22;1747;48.884;9.160;2023-12-07T04:03:22;2.80;99.90
3466;DHT22;1747;48.884;9.160;2023-12-07T04:05:49;2.70;99.90
3466;DHT22;1747;48.884;9.160;2023-12-07T04:08:16;2.70;99.90
3466;DHT22;1747;48.884;9.160;2023-12-07T04:10:44;2.70;99.90
3466;DHT22;1747;48.884;9.160;2023-12-07T04:13:11;2.70;99.90
3466;DHT22;1747;48.884;9.160;2023-12-07T04:15:38;2.60;99.90
3466;DHT22;1747;48.884;9.160;2023-12-07T04:18:05;2.50;99.90
3466;DHT22;1747;48.884;9.160;2023-12-07T04:20:31;2.50;99.90
3466;DHT22;1747;48.884;9.160;2023-12-07T04:22:58;2.40;99.90
3466;DHT22;1747;48.884;9.160;2023-12-07T04:25:25;2.40;99.90
3466;DHT22;1747;48.884;9.160;2023-12-07T04:27:53;2.50;99.90
3466;DHT22;1747;48.884;9.160;2023-12-07T04:30:20;2.50;99.90
3466;DHT22;1747;48.884;9.160;2023-12-07T04:32:47;2.50;99.90
3466;DHT22;1747;48.884;9.160;2023-12-07T04:35:13;2.50;99.90
3466;DHT22;1747;48.884;9.160;2023-12-07T04:37:40;2.50;99.90
3466;DHT22;1747;48.884;9.160;2023-12-07T04:40:08;2.50;99.90
3466;DHT22;1747;48.884;9.160;2023-12-07T04:42:35;2.60;99.90
3466;DHT22;1747;48.884;9.160;2023-12-07T04:45:05;2.40;99.90
3466;DHT22;1747;48.884;9.160;2023-12-07T04:47:32;2.30;99.90
3466;DHT22;1747;48.884;9.160;2023-12-07T04:49:59;2.30;99.90
3466;DHT22;1747;48.884;9.160;2023-12-07T04:52:26;2.20;99.90
3466;DHT22;1747;48.884;9.160;2023-12-07T04:54:53;2.20;99.90
3466;DHT22;1747;48.884;9.160;2023-12-07T04:57:19;2.30;99.90
3466;DHT22;1747;48.884;9.160;2023-12-07T04:59:46;2.30;99.90
3466;DHT22;1747;48.884;9.160;2023-12-07T05:02:15;2.30;99.90
3466;DHT22;1747;48.884;9.160;2023-12-07T05:04:42;2.30;99.90
3466;DHT22;1747;48.884;9.160;2023-12-07T05:07:10;2.30;99.90
3466;DHT22;1747;48.884;9.160;2023-12-07T05:09:38;2.30;99.90
3466;DHT22;1747;48.884;9.160;2023-12-07T05:12:06;2.30;99.90
3466;DHT22;1747;48.884;9.160;2023-12-07T05:14:33;2.30;99.90
3466;DHT22;1747;48.884;9.160;2023-12-07T05:17:00;2.30;99.90
3466;DHT22;1747;48.884;9.160;2023-12-07T05:19:29;2.30;99.90
3466;DHT22;1747;48.884;9.160;2023-12-07T05:21:56;2.30;99.90
3466;DHT22;1747;48.884;9.160;2023-12-07T05:24:23;2.30;99.90
3466;DHT22;1747;48.884;9.160;2023-12-07T05:26:50;2.30;99.90
3466;DHT22;1747;48.884;9.160;2023-12-07T05:29:17;2.30;99.90
3466;DHT22;1747;48.884;9.160;2023-12-07T05:31:44;2.30;99.90
3466;DHT22;1747;48.884;9.160;2023-12-07T05:34:11;2.20;99.90
3466;DHT22;1747;48.884;9.160;2023-12-07T05:36:39;2.20;99.90
3466;DHT22;1747;48.884;9.160;2023-12-07T05:39:06;2.20;99.90
3466;DHT22;1747;48.884;9.160;2023-12-07T05:41:33;2.20;99.90
3466;DHT22;1747;48.884;9.160;2023-12-07T05:44:00;2.10;99.90
3466;DHT22;1747;48.884;9.160;2023-12-07T05:46:27;2.10;99.90
3466;DHT22;1747;48.884;9.160;2023-12-07T05:48:54;2.10;99.90
3466;DHT22;1747;48.884;9.160;2023-12-07T05:51:20;2.10;99.90
3466;DHT22;1747;48.884;9.160;2023-12-07T05:53:49;2.00;99.90
3466;DHT22;1747;48.884;9.160;2023-12-07T05:56:18;2.00;99.90
3466;DHT22;1747;48.884;9.160;2023-12-07T05:58:45;2.00;99.90
3466;DHT22;1747;48.884;9.160;2023-12-07T06:01:12;2.00;99.90
3466;DHT22;1747;48.884;9.160;2023-12-07T06:03:39;2.00;99.90
3466;DHT22;1747;48.884;9.160;2023-12-07T06:06:07;2.00;99.90
3466;DHT22;1747;48.884;9.160;2023-12-07T06:08:37;2.10;99.90
3466;DHT22;1747;48.884;9.160;2023-12-07T06:11:05;2.10;99.90
3466;DHT22;1747;48.884;9.160;2023-12-07T06:13:32;2.00;99.90
3466;DHT22;1747;48.884;9.160;2023-12-07T06:15:59;2.00;99.90
3466;DHT22;1747;48.884;9.160;2023-12-07T06:18:26;2.00;99.90
3466;DHT22;1747;48.884;9.160;2023-12-07T06:20:53;2.00;99.90
3466;DHT22;1747;48.884;9.160;2023-12-07T06:23:20;2.10;99.90
3466;DHT22;1747;48.884;9.160;2023-12-07T06:25:47;2.30;99.90
3466;DHT22;1747;48.884;9.160;2023-12-07T06:28:16;2.30;99.90
3466;DHT22;1747;48.884;9.160;2023-12-07T06:30:43;2.20;99.90
3466;DHT22;1747;48.884;9.160;2023-12-07T06:33:12;2.10;99.90
3466;DHT22;1747;48.884;9.160;2023-12-07T06:35:39;2.10;99.90
3466;DHT22;1747;48.884;9.160;2023-12-07T06:38:06;2.00;99.90
3466;DHT22;1747;48.884;9.160;2023-12-07T06:40:33;1.90;99.90
3466;DHT22;1747;48.884;9.160;2023-12-07T06:43:00;1.90;99.90
3466;DHT22;1747;48.884;9.160;2023-12-07T06:45:28;1.80;99.90
3466;DHT22;1747;48.884;9.160;2023-12-07T06:47:55;1.80;99.90
3466;DHT22;1747;48.884;9.160;2023-12-07T06:50:21;1.80;99.90
3466;DHT22;1747;48.884;9.160;2023-12-07T06:52:48;1.70;99.90
3466;DHT22;1747;48.884;9.160;2023-12-07T06:55:15;1.70;99.90
3466;DHT22;1747;48.884;9.160;2023-12-07T06:57:42;1.70;99.90
3466;DHT22;1747;48.884;9.160;2023-12-07T07:00:09;1.70;99.90
3466;DHT22;1747;48.884;9.160;2023-12-07T07:02:39;1.70;99.90
3466;DHT22;1747;48.884;9.160;2023-12-07T07:05:06;1.70;99.90
3466;DHT22;1747;48.884;9.160;2023-12-07T07:07:34;1.70;99.90
3466;DHT22;1747;48.884;9.160;2023-12-07T07:10:01;1.60;99.90
3466;DHT22;1747;48.884;9.160;2023-12-07T07:12:28;1.60;99.90
3466;DHT22;1747;48.884;9.160;2023-12-07T07:14:55;1.50;99.90
3466;DHT22;1747;48.884;9.160;2023-12-07T07:17:22;1.50;99.90
3466;DHT22;1747;48.884;9.160;2023-12-07T07:19:50;1.40;99.90
3466;DHT22;1747;48.884;9.160;2023-12-07T07:22:17;1.40;99.90
3466;DHT22;1747;48.884;9.160;2023-12-07T07:24:44;1.40;99.90
3466;DHT22;1747;48.884;9.160;2023-12-07T07:27:11;1.40;99.90
3466;DHT22;1747;48.884;9.160;2023-12-07T07:29:38;1.40;99.90
3466;DHT22;1747;48.884;9.160;2023-12-07T07:32:05;1.40;99.90
3466;DHT22;1747;48.884;9.160;2023-12-07T07:34:33;1.40;99.90
3466;DHT22;1747;48.884;9.160;2023-12-07T07:37:01;1.50;99.90
3466;DHT22;1747;48.884;9.160;2023-12-07T07:39:28;1.60;99.90
3466;DHT22;1747;48.884;9.160;2023-12-07T07:41:55;1.60;99.90
3466;DHT22;1747;48.884;9.160;2023-12-07T07:44:22;1.70;99.90
3466;DHT22;1747;48.884;9.160;2023-12-07T07:46:49;1.80;99.90
3466;DHT22;1747;48.884;9.160;2023-12-07T07:49:16;1.80;99.90
3466;DHT22;1747;48.884;9.160;2023-12-07T07:51:42;1.90;99.90
3466;DHT22;1747;48.884;9.160;2023-12-07T07:54:10;2.00;99.90
3466;DHT22;1747;48.884;9.160;2023-12-07T07:56:37;2.00;99.90
3466;DHT22;1747;48.884;9.160;2023-12-07T07:59:04;2.10;99.90
3466;DHT22;1747;48.884;9.160;2023-12-07T08:01:31;2.10;99.90
3466;DHT22;1747;48.884;9.160;2023-12-07T08:03:58;2.30;99.90
3466;DHT22;1747;48.884;9.160;2023-12-07T08:06:24;2.30;99.90
3466;DHT22;1747;48.884;9.160;2023-12-07T08:08:51;2.40;99.90
3466;DHT22;1747;48.884;9.160;2023-12-07T08:11:19;2.40;99.90
3466;DHT22;1747;48.884;9.160;2023-12-07T08:13:46;2.50;99.90
3466;DHT22;1747;48.884;9.160;2023-12-07T08:16:13;2.50;99.90
3466;DHT22;1747;48.884;9.160;2023-12-07T08:18:40;2.60;99.90
3466;DHT22;1747;48.884;9.160;2023-12-07T08:21:07;2.60;99.90
3466;DHT22;1747;48.884;9.160;2023-12-07T08:23:34;2.70;99.90
3466;DHT22;1747;48.884;9.160;2023-12-07T08:26:01;2.70;99.90
3466;DHT22;1747;48.884;9.160;2023-12-07T08:28:29;2.90;99.90
3466;DHT22;1747;48.884;9.160;2023-12-07T08:30:56;2.90;99.90
3466;DHT22;1747;48.884;9.160;2023-12-07T08:33:23;3.10;99.90
3466;DHT22;1747;48.884;9.160;2023-12-07T08:35:50;3.10;99.90
3466;DHT22;1747;48.884;9.160;2023-12-07T08:38:20;3.20;99.90
3466;DHT22;1747;48.884;9.160;2023-12-07T08:40:48;3.30;99.90
3466;DHT22;1747;48.884;9.160;2023-12-07T08:43:15;3.30;99.90
3466;DHT22;1747;48.884;9.160;2023-12-07T08:45:43;3.30;99.90
3466;DHT22;1747;48.884;9.160;2023-12-07T08:48:10;3.40;99.90
3466;DHT22;1747;48.884;9.160;2023-12-07T08:50:37;3.40;99.90
3466;DHT22;1747;48.884;9.160;2023-12-07T08:53:03;3.40;99.90
3466;DHT22;1747;48.884;9.160;2023-12-07T08:55:30;3.50;99.90
3466;DHT22;1747;48.884;9.160;2023-12-07T08:57:57;3.50;99.90
3466;DHT22;1747;48.884;9.160;2023-12-07T09:00:25;3.60;99.90
3466;DHT22;1747;48.884;9.160;2023-12-07T09:02:53;3.70;99.90
3466;DHT22;1747;48.884;9.160;2023-12-07T09:05:20;3.70;99.90
3466;DHT22;1747;48.884;9.160;2023-12-07T09:07:47;3.80;99.90
3466;DHT22;1747;48.884;9.160;2023-12-07T09:10:13;3.80;99.90
3466;DHT22;1747;48.884;9.160;2023-12-07T09:12:40;3.80;99.90
3466;DHT22;1747;48.884;9.160;2023-12-07T09:15:08;3.90;99.90
3466;DHT22;1747;48.884;9.160;2023-12-07T09:17:35;3.90;99.90
3466;DHT22;1747;48.884;9.160;2023-12-07T09:20:06;4.00;99.90
3466;DHT22;1747;48.884;9.160;2023-12-07T09:22:37;4.10;99.90
3466;DHT22;1747;48.884;9.160;2023-12-07T09:25:05;4.30;99.90
3466;DHT22;1747;48.884;9.160;2023-12-07T09:27:33;4.40;99.90
3466;DHT22;1747;48.884;9.160;2023-12-07T09:30:00;4.40;99.90
3466;DHT22;1747;48.884;9.160;2023-12-07T09:32:28;4.50;99.90
3466;DHT22;1747;48.884;9.160;2023-12-07T09:34:55;4.60;99.90
3466;DHT22;1747;48.884;9.160;2023-12-07T09:37:23;4.70;99.90
3466;DHT22;1747;48.884;9.160;2023-12-07T09:39:50;4.80;99.90
3466;DHT22;1747;48.884;9.160;2023-12-07T09:42:17;4.90;99.90
3466;DHT22;1747;48.884;9.160;2023-12-07T09:44:44;4.80;99.90
3466;DHT22;1747;48.884;9.160;2023-12-07T09:47:11;4.80;99.90
3466;DHT22;1747;48.884;9.160;2023-12-07T09:49:39;4.90;99.90
3466;DHT22;1747;48.884;9.160;2023-12-07T09:52:08;4.90;99.90
3466;DHT22;1747;48.884;9.160;2023-12-07T09:54:40;5.00;99.90
3466;DHT22;1747;48.884;9.160;2023-12-07T09:57:07;5.00;99.90
3466;DHT22;1747;48.884;9.160;2023-12-07T09:59:35;5.00;99.90
3466;DHT22;1747;48.884;9.160;2023-12-07T10:02:02;5.10;99.90
3466;DHT22;1747;48.884;9.160;2023-12-07T10:04:29;5.20;99.90
3466;DHT22;1747;48.884;9.160;2023-12-07T10:06:56;5.20;99.90
3466;DHT22;1747;48.884;9.160;2023-12-07T10:09:23;5.20;99.90
3466;DHT22;1747;48.884;9.160;2023-12-07T10:12:02;5.40;99.90
3466;DHT22;1747;48.884;9.160;2023-12-07T10:14:29;5.40;99.90
3466;DHT22;1747;48.884;9.160;2023-12-07T10:16:59;5.50;99.90
3466;DHT22;1747;48.884;9.160;2023-12-07T10:19:26;5.40;99.90
3466;DHT22;1747;48.884;9.160;2023-12-07T10:21:54;5.40;99.90
3466;DHT22;1747;48.884;9.160;2023-12-07T10:24:24;5.50;99.90
3466;DHT22;1747;48.884;9.160;2023-12-07T10:26:52;5.50;99.90
3466;DHT22;1747;48.884;9.160;2023-12-07T10:29:20;5.60;99.90
3466;DHT22;1747;48.884;9.160;2023-12-07T10:31:49;5.60;99.90
3466;DHT22;1747;48.884;9.160;2023-12-07T10:34:18;5.60;99.90
3466;DHT22;1747;48.884;9.160;2023-12-07T10:36:46;5.60;99.90
3466;DHT22;1747;48.884;9.160;2023-12-07T10:39:13;5.50;99.90
3466;DHT22;1747;48.884;9.160;2023-12-07T10:41:43;5.70;99.90
3466;DHT22;1747;48.884;9.160;2023-12-07T10:44:13;5.70;99.90
3466;DHT22;1747;48.884;9.160;2023-12-07T10:46:45;5.80;99.90
3466;DHT22;1747;48.884;9.160;2023-12-07T10:49:17;5.80;99.90
3466;DHT22;1747;48.884;9.160;2023-12-07T10:51:49;5.80;99.90
3466;DHT22;1747;48.884;9.160;2023-12-07T10:54:18;5.90;99.90
3466;DHT22;1747;48.884;9.160;2023-12-07T10:56:48;6.10;99.90
3466;DHT22;1747;48.884;9.160;2023-12-07T10:59:16;6.00;99.90
3466;DHT22;1747;48.884;9.160;2023-12-07T11:01:45;6.00;99.90
3466;DHT22;1747;48.884;9.160;2023-12-07T11:04:13;6.00;99.90
3466;DHT22;1747;48.884;9.160;2023-12-07T11:06:41;6.00;99.90
3466;DHT22;1747;48.884;9.160;2023-12-07T11:09:10;6.10;99.90
3466;DHT22;1747;48.884;9.160;2023-12-07T11:11:43;6.20;99.90
3466;DHT22;1747;48.884;9.160;2023-12-07T11:14:12;6.20;99.90
3466;DHT22;1747;48.884;9.160;2023-12-07T11:16:45;6.30;99.90
3466;DHT22;1747;48.884;9.160;2023-12-07T11:19:46;6.40;99.90
3466;DHT22;1747;48.884;9.160;2023-12-07T11:22:13;6.30;99.90
3466;DHT22;1747;48.884;9.160;2023-12-07T11:24:52;6.30;99.90
3466;DHT22;1747;48.884;9.160;2023-12-07T11:27:19;6.20;99.90
3466;DHT22;1747;48.884;9.160;2023-12-07T11:29:47;6.40;99.90
3466;DHT22;1747;48.884;9.160;2023-12-07T11:32:15;6.30;99.90
3466;DHT22;1747;48.884;9.160;2023-12-07T11:34:43;6.30;99.90
3466;DHT22;1747;48.884;9.160;2023-12-07T11:37:11;6.30;99.90
3466;DHT22;1747;48.884;9.160;2023-12-07T11:39:41;6.40;99.90
3466;DHT22;1747;48.884;9.160;2023-12-07T11:42:09;6.40;99.90
3466;DHT22;1747;48.884;9.160;2023-12-07T11:44:38;6.50;99.90
3466;DHT22;1747;48.884;9.160;2023-12-07T11:47:05;6.50;99.90
3466;DHT22;1747;48.884;9.160;2023-12-07T11:49:33;6.60;99.90
3466;DHT22;1747;48.884;9.160;2023-12-07T11:52:00;6.80;99.90
3466;DHT22;1747;48.884;9.160;2023-12-07T11:54:27;6.90;99.90
3466;DHT22;1747;48.884;9.160;2023-12-07T11:56:54;7.10;99.90
3466;DHT22;1747;48.884;9.160;2023-12-07T11:59:21;7.10;99.90
3466;DHT22;1747;48.884;9.160;2023-12-07T12:01:51;7.30;99.90
3466;DHT22;1747;48.884;9.160;2023-12-07T12:04:18;7.60;99.90
3466;DHT22;1747;48.884;9.160;2023-12-07T12:06:46;7.80;99.90
3466;DHT22;1747;48.884;9.160;2023-12-07T12:09:14;8.00;99.90
3466;DHT22;1747;48.884;9.160;2023-12-07T12:11:44;8.20;99.90
3466;DHT22;1747;48.884;9.160;2023-12-07T12:14:11;8.40;99.90
3466;DHT22;1747;48.884;9.160;2023-12-07T12:16:38;8.50;99.90
3466;DHT22;1747;48.884;9.160;2023-12-07T12:19:05;8.80;99.90
3466;DHT22;1747;48.884;9.160;2023-12-07T12:21:33;9.00;99.90
3466;DHT22;1747;48.884;9.160;2023-12-07T12:24:02;8.80;99.90
3466;DHT22;1747;48.884;9.160;2023-12-07T12:26:29;8.80;99.90
3466;DHT22;1747;48.884;9.160;2023-12-07T12:28:56;9.00;99.90
3466;DHT22;1747;48.884;9.160;2023-12-07T12:31:23;9.00;99.90
3466;DHT22;1747;48.884;9.160;2023-12-07T12:33:50;9.20;99.90
3466;DHT22;1747;48.884;9.160;2023-12-07T12:36:19;9.30;99.90
3466;DHT22;1747;48.884;9.160;2023-12-07T12:38:49;9.40;99.90
3466;DHT22;1747;48.884;9.160;2023-12-07T12:41:19;9.50;99.90
3466;DHT22;1747;48.884;9.160;2023-12-07T12:43:46;9.90;99.90
3466;DHT22;1747;48.884;9.160;2023-12-07T12:46:14;9.90;99.90
3466;DHT22;1747;48.884;9.160;2023-12-07T12:48:54;10.20;99.90
3466;DHT22;1747;48.884;9.160;2023-12-07T12:51:24;10.40;99.90
3466;DHT22;1747;48.884;9.160;2023-12-07T12:53:52;10.30;99.90
3466;DHT22;1747;48.884;9.160;2023-12-07T12:56:20;9.70;99.90
3466;DHT22;1747;48.884;9.160;2023-12-07T12:58:48;9.90;99.90
3466;DHT22;1747;48.884;9.160;2023-12-07T13:01:15;10.10;99.90
3466;DHT22;1747;48.884;9.160;2023-12-07T13:03:43;10.40;99.90
3466;DHT22;1747;48.884;9.160;2023-12-07T13:06:11;10.50;99.90
3466;DHT22;1747;48.884;9.160;2023-12-07T13:08:38;10.50;99.90
3466;DHT22;1747;48.884;9.160;2023-12-07T13:11:06;10.80;99.90
3466;DHT22;1747;48.884;9.160;2023-12-07T13:13:34;11.00;99.90
3466;DHT22;1747;48.884;9.160;2023-12-07T13:16:01;11.10;99.90
3466;DHT22;1747;48.884;9.160;2023-12-07T13:18:28;10.90;99.90
3466;DHT22;1747;48.884;9.160;2023-12-07T13:20:55;10.90;99.90
3466;DHT22;1747;48.884;9.160;2023-12-07T13:23:22;10.80;99.90
3466;DHT22;1747;48.884;9.160;2023-12-07T13:25:50;10.70;99.90
3466;DHT22;1747;48.884;9.160;2023-12-07T13:28:17;10.50;99.90
3466;DHT22;1747;48.884;9.160;2023-12-07T13:30:45;10.30;99.90
3466;DHT22;1747;48.884;9.160;2023-12-07T13:33:12;10.10;99.90
3466;DHT22;1747;48.884;9.160;2023-12-07T13:35:39;9.90;99.90
3466;DHT22;1747;48.884;9.160;2023-12-07T13:38:07;9.10;99.90
3466;DHT22;1747;48.884;9.160;2023-12-07T13:40:34;8.90;99.90
3466;DHT22;1747;48.884;9.160;2023-12-07T13:43:02;8.90;99.90
3466;DHT22;1747;48.884;9.160;2023-12-07T13:45:29;8.80;99.90
3466;DHT22;1747;48.884;9.160;2023-12-07T13:47:59;8.80;99.90
3466;DHT22;1747;48.884;9.160;2023-12-07T13:50:26;8.70;99.90
3466;DHT22;1747;48.884;9.160;2023-12-07T13:52:53;8.60;99.90
3466;DHT22;1747;48.884;9.160;2023-12-07T13:55:20;8.50;99.90
3466;DHT22;1747;48.884;9.160;2023-12-07T13:57:49;8.40;99.90
3466;DHT22;1747;48.884;9.160;2023-12-07T14:00:19;8.40;99.90
3466;DHT22;1747;48.884;9.160;2023-12-07T14:02:46;8.30;99.90
3466;DHT22;1747;48.884;9.160;2023-12-07T14:05:15;8.30;99.90
3466;DHT22;1747;48.884;9.160;2023-12-07T14:07:41;8.40;99.90
3466;DHT22;1747;48.884;9.160;2023-12-07T14:10:08;8.50;99.90
3466;DHT22;1747;48.884;9.160;2023-12-07T14:12:36;8.30;99.90
3466;DHT22;1747;48.884;9.160;2023-12-07T14:15:04;8.30;99.90
3466;DHT22;1747;48.884;9.160;2023-12-07T14:17:31;8.20;99.90
3466;DHT22;1747;48.884;9.160;2023-12-07T14:20:03;8.10;99.90
3466;DHT22;1747;48.884;9.160;2023-12-07T14:22:32;8.00;99.90
3466;DHT22;1747;48.884;9.160;2023-12-07T14:25:00;7.90;99.90
3466;DHT22;1747;48.884;9.160;2023-12-07T14:27:27;7.80;99.90
3466;DHT22;1747;48.884;9.160;2023-12-07T14:29:54;7.70;99.90
3466;DHT22;1747;48.884;9.160;2023-12-07T14:32:22;7.60;99.90
3466;DHT22;1747;48.884;9.160;2023-12-07T14:34:49;7.50;99.90
3466;DHT22;1747;48.884;9.160;2023-12-07T14:37:17;7.50;99.90
3466;DHT22;1747;48.884;9.160;2023-12-07T14:39:45;7.40;99.90
3466;DHT22;1747;48.884;9.160;2023-12-07T14:42:12;7.20;99.90
3466;DHT22;1747;48.884;9.160;2023-12-07T14:44:39;7.20;99.90
3466;DHT22;1747;48.884;9.160;2023-12-07T14:47:06;7.00;99.90
3466;DHT22;1747;48.884;9.160;2023-12-07T14:49:33;6.90;99.90
3466;DHT22;1747;48.884;9.160;2023-12-07T14:52:00;6.90;99.90
3466;DHT22;1747;48.884;9.160;2023-12-07T14:54:27;6.80;99.90
3466;DHT22;1747;48.884;9.160;2023-12-07T14:56:57;6.80;99.90
3466;DHT22;1747;48.884;9.160;2023-12-07T14:59:24;6.80;99.90
3466;DHT22;1747;48.884;9.160;2023-12-07T15:01:51;6.80;99.90
3466;DHT22;1747;48.884;9.160;2023-12-07T15:04:18;6.60;99.90
3466;DHT22;1747;48.884;9.160;2023-12-07T15:06:45;6.50;99.90
3466;DHT22;1747;48.884;9.160;2023-12-07T15:09:11;6.40;99.90
3466;DHT22;1747;48.884;9.160;2023-12-07T15:11:39;6.40;99.90
3466;DHT22;1747;48.884;9.160;2023-12-07T15:14:07;6.30;99.90
3466;DHT22;1747;48.884;9.160;2023-12-07T15:16:36;6.30;99.90
3466;DHT22;1747;48.884;9.160;2023-12-07T15:19:04;6.30;99.90
3466;DHT22;1747;48.884;9.160;2023-12-07T15:21:31;6.30;99.90
3466;DHT22;1747;48.884;9.160;2023-12-07T15:23:59;6.20;99.90
3466;DHT22;1747;48.884;9.160;2023-12-07T15:26:25;6.10;99.90
3466;DHT22;1747;48.884;9.160;2023-12-07T15:28:52;6.00;99.90
3466;DHT22;1747;48.884;9.160;2023-12-07T15:31:20;6.00;99.90
3466;DHT22;1747;48.884;9.160;2023-12-07T15:33:47;5.90;99.90
3466;DHT22;1747;48.884;9.160;2023-12-07T15:36:14;5.80;99.90
3466;DHT22;1747;48.884;9.160;2023-12-07T15:38:41;5.70;99.90
3466;DHT22;1747;48.884;9.160;2023-12-07T15:41:08;5.70;99.90
3466;DHT22;1747;48.884;9.160;2023-12-07T15:43:35;5.60;99.90
3466;DHT22;1747;48.884;9.160;2023-12-07T15:46:02;5.50;99.90
3466;DHT22;1747;48.884;9.160;2023-12-07T15:48:31;5.40;99.90
3466;DHT22;1747;48.884;9.160;2023-12-07T15:50:59;5.40;99.90
3466;DHT22;1747;48.884;9.160;2023-12-07T15:53:27;5.30;99.90
3466;DHT22;1747;48.884;9.160;2023-12-07T15:55:54;5.30;99.90
3466;DHT22;1747;48.884;9.160;2023-12-07T15:58:21;5.20;99.90
3466;DHT22;1747;48.884;9.160;2023-12-07T16:00:48;5.10;99.90
3466;DHT22;1747;48.884;9.160;2023-12-07T16:03:15;5.00;99.90
3466;DHT22;1747;48.884;9.160;2023-12-07T16:05:43;5.00;99.90
3466;DHT22;1747;48.884;9.160;2023-12-07T16:08:10;5.00;99.90
3466;DHT22;1747;48.884;9.160;2023-12-07T16:10:38;5.00;99.90
3466;DHT22;1747;48.884;9.160;2023-12-07T16:13:04;4.90;99.90
3466;DHT22;1747;48.884;9.160;2023-12-07T16:15:32;5.00;99.90
3466;DHT22;1747;48.884;9.160;2023-12-07T16:17:58;4.90;99.90
3466;DHT22;1747;48.884;9.160;2023-12-07T16:20:25;4.80;99.90